createdAt,value
2018-05-06T04:09:48.389Z,20
2018-05-06T04:10:13.876Z,20
2018-05-06T04:10:39.465Z,20
2018-05-06T04:11:04.854Z,20
2018-05-06T04:11:30.334Z,20
2018-05-06T04:11:55.844Z,20
2018-05-06T04:12:21.313Z,20
2018-05-06T04:12:46.757Z,20
2018-05-06T04:13:12.307Z,25
2018-05-06T04:13:37.890Z,25
2018-05-06T04:14:03.386Z,25
2018-05-06T04:14:28.833Z,25
2018-05-06T04:14:54.273Z,25
2018-05-06T04:15:19.760Z,25
2018-05-06T04:15:45.207Z,25
2018-05-06T04:16:10.715Z,25
2018-05-06T04:16:36.200Z,25
2018-05-06T04:17:01.675Z,25
2018-05-06T04:17:27.175Z,25
2018-05-06T04:17:52.727Z,25
2018-05-06T04:18:18.326Z,25
2018-05-06T04:18:43.818Z,30
2018-05-06T04:19:09.343Z,30
2018-05-06T04:19:34.799Z,30
2018-05-06T04:20:00.253Z,30
2018-05-06T04:20:25.731Z,30
2018-05-06T04:20:51.229Z,30
2018-05-06T04:21:16.681Z,30
2018-05-06T04:21:42.151Z,30
2018-05-06T04:22:07.620Z,30
2018-05-06T04:22:33.123Z,30
2018-05-06T04:22:58.540Z,30
2018-05-06T04:23:23.999Z,30
2018-05-06T04:23:49.527Z,30
2018-05-06T04:24:14.951Z,35
2018-05-06T04:24:40.433Z,35
2018-05-06T04:25:05.912Z,35
2018-05-06T04:25:31.379Z,35
2018-05-06T04:25:56.853Z,35
2018-05-06T04:26:22.334Z,35
2018-05-06T04:26:47.806Z,35
2018-05-06T04:27:13.257Z,35
2018-05-06T04:27:38.742Z,35
2018-05-06T04:28:04.210Z,35
2018-05-06T04:28:29.733Z,35
2018-05-06T04:28:55.275Z,35
2018-05-06T04:29:20.784Z,35
2018-05-06T04:29:46.169Z,40
2018-05-06T04:30:11.684Z,40
2018-05-06T04:30:37.137Z,40
2018-05-06T04:31:02.699Z,40
2018-05-06T04:31:28.080Z,40
2018-05-06T04:31:53.627Z,40
2018-05-06T04:32:19.124Z,40
2018-05-06T04:32:44.538Z,40
2018-05-06T04:33:10.082Z,40
2018-05-06T04:33:35.510Z,40
2018-05-06T04:34:00.978Z,40
2018-05-06T04:34:26.496Z,45
2018-05-06T04:34:51.991Z,45
2018-05-06T04:35:17.428Z,45
2018-05-06T04:35:42.877Z,45
2018-05-06T04:36:08.379Z,50
2018-05-06T04:36:33.861Z,50
2018-05-06T04:36:59.328Z,50
2018-05-06T04:37:24.751Z,50
2018-05-06T04:37:50.228Z,55
2018-05-06T04:38:15.732Z,55
2018-05-06T04:38:41.343Z,55
2018-05-06T04:39:06.821Z,55
2018-05-06T04:39:32.347Z,60
2018-05-06T04:39:57.805Z,60
2018-05-06T04:40:23.313Z,60
2018-05-06T04:40:48.779Z,60
2018-05-06T04:41:14.199Z,65
2018-05-06T04:41:39.682Z,60
2018-05-06T04:42:05.195Z,60
2018-05-06T04:42:30.744Z,65
2018-05-06T04:42:56.372Z,65
2018-05-06T04:43:21.881Z,70
2018-05-06T04:43:47.369Z,70
2018-05-06T04:44:12.909Z,75
2018-05-06T04:44:38.282Z,75
2018-05-06T04:45:03.761Z,80
2018-05-06T04:45:29.317Z,80
2018-05-06T04:45:54.732Z,85
2018-05-06T04:46:20.244Z,80
2018-05-06T04:46:45.680Z,80
2018-05-06T04:47:11.162Z,80
2018-05-06T04:47:36.710Z,85
2018-05-06T04:48:02.147Z,85
2018-05-06T04:48:27.769Z,85
2018-05-06T04:48:53.163Z,85
2018-05-06T04:49:18.625Z,85
2018-05-06T04:49:44.135Z,85
2018-05-06T04:50:09.598Z,85
2018-05-06T04:50:35.128Z,85
2018-05-06T04:51:00.554Z,85
2018-05-06T04:51:26.025Z,85
2018-05-06T04:51:51.513Z,85
2018-05-06T04:52:17.016Z,90
2018-05-06T04:52:42.489Z,90
2018-05-06T04:53:07.923Z,85
2018-05-06T04:53:33.410Z,90
2018-05-06T04:53:58.855Z,90
2018-05-06T04:54:24.328Z,95
2018-05-06T04:54:49.781Z,95
2018-05-06T04:55:15.250Z,95
2018-05-06T04:55:40.694Z,95
2018-05-06T04:56:06.207Z,95
2018-05-06T04:56:31.698Z,100
2018-05-06T04:56:57.168Z,100
2018-05-06T04:57:22.631Z,100
2018-05-06T04:57:48.146Z,100
2018-05-06T04:58:13.560Z,100
2018-05-06T04:58:39.002Z,100
2018-05-06T04:59:04.471Z,100
2018-05-06T04:59:29.934Z,100
2018-05-06T04:59:55.395Z,105
2018-05-06T05:00:20.830Z,105
2018-05-06T05:00:46.318Z,105
2018-05-06T05:01:11.788Z,105
2018-05-06T05:01:37.201Z,105
2018-05-06T05:02:02.681Z,105
2018-05-06T05:02:28.143Z,105
2018-05-06T05:02:53.589Z,105
2018-05-06T05:03:19.064Z,110
2018-05-06T05:03:44.528Z,110
2018-05-06T05:04:10.021Z,110
2018-05-06T05:04:35.473Z,110
2018-05-06T05:05:01.084Z,110
2018-05-06T05:05:26.531Z,110
2018-05-06T05:05:51.946Z,110
2018-05-06T05:06:17.434Z,110
2018-05-06T05:06:42.960Z,110
2018-05-06T05:07:08.436Z,115
2018-05-06T05:07:33.901Z,115
2018-05-06T05:07:59.486Z,115
2018-05-06T05:08:24.993Z,115
2018-05-06T05:08:50.449Z,115
2018-05-06T05:09:15.961Z,115
2018-05-06T05:09:41.426Z,115
2018-05-06T05:10:06.879Z,115
2018-05-06T05:10:32.315Z,115
2018-05-06T05:10:57.805Z,115
2018-05-06T05:11:23.301Z,115
2018-05-06T05:11:48.744Z,120
2018-05-06T05:12:14.352Z,120
2018-05-06T05:12:39.791Z,120
2018-05-06T05:13:05.262Z,120
2018-05-06T05:13:30.718Z,120
2018-05-06T05:13:56.169Z,120
2018-05-06T05:14:21.637Z,120
2018-05-06T05:14:47.129Z,120
2018-05-06T05:15:12.675Z,125
2018-05-06T05:15:38.177Z,125
2018-05-06T05:16:03.726Z,125
2018-05-06T05:16:29.213Z,125
2018-05-06T05:16:54.703Z,125
2018-05-06T05:17:20.308Z,125
2018-05-06T05:17:45.825Z,130
2018-05-06T05:18:11.304Z,135
2018-05-06T05:18:36.868Z,130
2018-05-06T05:19:02.389Z,130
2018-05-06T05:19:27.883Z,130
2018-05-06T05:19:53.461Z,130
2018-05-06T05:20:18.966Z,130
2018-05-06T05:20:44.556Z,130
2018-05-06T05:21:09.977Z,130
2018-05-06T05:21:35.487Z,135
2018-05-06T05:22:00.993Z,135
2018-05-06T05:22:26.515Z,135
2018-05-06T05:22:51.971Z,135
2018-05-06T05:23:17.437Z,135
2018-05-06T05:23:42.845Z,140
2018-05-06T05:24:08.315Z,140
2018-05-06T05:24:33.801Z,140
2018-05-06T05:24:59.279Z,140
2018-05-06T05:25:24.701Z,140
2018-05-06T05:25:50.180Z,140
2018-05-06T05:26:15.651Z,145
2018-05-06T05:26:41.155Z,150
2018-05-06T05:27:06.599Z,145
2018-05-06T05:27:32.119Z,145
2018-05-06T05:27:57.579Z,145
2018-05-06T05:28:23.054Z,145
2018-05-06T05:28:48.495Z,145
2018-05-06T05:29:13.981Z,145
2018-05-06T05:29:39.399Z,145
2018-05-06T05:30:04.873Z,145
2018-05-06T05:30:30.339Z,145
2018-05-06T05:30:55.799Z,145
2018-05-06T05:31:21.462Z,150
2018-05-06T05:31:46.962Z,150
2018-05-06T05:32:12.450Z,150
2018-05-06T05:32:37.914Z,150
2018-05-06T05:33:03.364Z,150
2018-05-06T05:33:28.821Z,150
2018-05-06T05:33:54.305Z,150
2018-05-06T05:34:19.795Z,150
2018-05-06T05:34:45.248Z,150
2018-05-06T05:35:10.723Z,150
2018-05-06T05:35:36.256Z,150
2018-05-06T05:36:01.642Z,150
2018-05-06T05:36:27.151Z,155
2018-05-06T05:36:52.891Z,155
2018-05-06T05:37:18.303Z,155
2018-05-06T05:37:43.826Z,155
2018-05-06T05:38:09.236Z,155
2018-05-06T05:38:34.793Z,155
2018-05-06T05:39:00.217Z,155
2018-05-06T05:39:25.693Z,155
2018-05-06T05:39:51.208Z,155
2018-05-06T05:40:16.701Z,155
2018-05-06T05:40:42.199Z,155
2018-05-06T05:41:07.704Z,160
2018-05-06T05:41:33.215Z,160
2018-05-06T05:41:58.757Z,160
2018-05-06T05:42:24.218Z,160
2018-05-06T05:42:49.710Z,160
2018-05-06T05:43:15.147Z,160
2018-05-06T05:43:40.621Z,160
2018-05-06T05:44:06.110Z,160
2018-05-06T05:44:31.659Z,160
2018-05-06T05:44:57.040Z,160
2018-05-06T05:45:22.535Z,165
2018-05-06T05:45:48.016Z,165
2018-05-06T05:46:13.694Z,165
2018-05-06T05:46:39.487Z,165
2018-05-06T05:47:05.054Z,165
2018-05-06T05:47:30.466Z,165
2018-05-06T05:47:56.081Z,165
2018-05-06T05:48:21.408Z,165
2018-05-06T05:48:46.937Z,170
2018-05-06T05:49:12.403Z,170
2018-05-06T05:49:37.931Z,170
2018-05-06T05:50:03.494Z,170
2018-05-06T05:50:28.963Z,170
2018-05-06T05:50:54.474Z,175
2018-05-06T05:51:20.052Z,175
2018-05-06T05:51:45.665Z,175
2018-05-06T05:52:11.199Z,175
2018-05-06T05:52:36.838Z,180
2018-05-06T05:53:02.487Z,180
2018-05-06T05:53:28.309Z,185
2018-05-06T05:53:53.704Z,195
2018-05-06T05:54:19.247Z,190
2018-05-06T05:54:44.678Z,195
2018-05-06T05:55:10.293Z,205
2018-05-06T05:55:35.888Z,215
2018-05-06T05:56:01.354Z,235
2018-05-06T05:56:26.924Z,250
2018-05-06T05:56:52.489Z,265
2018-05-06T05:57:18.105Z,275
2018-05-06T05:57:43.509Z,285
2018-05-06T05:58:09.021Z,295
2018-05-06T05:58:34.470Z,305
2018-05-06T05:58:59.942Z,310
2018-05-06T05:59:25.426Z,330
2018-05-06T05:59:50.887Z,360
2018-05-06T06:00:16.349Z,400
2018-05-06T06:00:41.778Z,420
2018-05-06T06:01:07.302Z,445
2018-05-06T06:01:32.730Z,440
2018-05-06T06:01:58.308Z,435
2018-05-06T06:02:23.890Z,425
2018-05-06T06:02:49.438Z,425
2018-05-06T06:03:15.002Z,455
2018-05-06T06:03:40.449Z,485
2018-05-06T06:04:06.045Z,480
2018-05-06T06:04:31.631Z,475
2018-05-06T06:04:57.068Z,470
2018-05-06T06:05:22.658Z,440
2018-05-06T06:05:48.141Z,435
2018-05-06T06:06:13.581Z,430
2018-05-06T06:06:39.165Z,410
2018-05-06T06:07:04.615Z,400
2018-05-06T06:07:30.098Z,410
2018-05-06T06:07:55.605Z,490
2018-05-06T06:08:21.119Z,565
2018-05-06T06:08:46.548Z,655
2018-05-06T06:09:12.701Z,750
2018-05-06T06:09:38.114Z,860
2018-05-06T06:10:03.572Z,950
2018-05-06T06:10:29.249Z,990
2018-05-06T06:10:54.788Z,1000
2018-05-06T06:11:20.286Z,1035
2018-05-06T06:11:46.234Z,1065
2018-05-06T06:12:11.730Z,1090
2018-05-06T06:12:37.345Z,1105
2018-05-06T06:13:02.857Z,1070
2018-05-06T06:13:28.319Z,1000
2018-05-06T06:13:53.827Z,955
2018-05-06T06:14:19.288Z,930
2018-05-06T06:14:44.863Z,920
2018-05-06T06:15:10.339Z,935
2018-05-06T06:15:35.893Z,955
2018-05-06T06:16:01.307Z,960
2018-05-06T06:16:26.769Z,935
2018-05-06T06:16:52.268Z,925
2018-05-06T06:17:17.936Z,930
2018-05-06T06:17:43.363Z,940
2018-05-06T06:18:08.808Z,960
2018-05-06T06:18:34.301Z,960
2018-05-06T06:18:59.762Z,935
2018-05-06T06:19:25.266Z,905
2018-05-06T06:19:50.748Z,900
2018-05-06T06:20:16.212Z,910
2018-05-06T06:20:41.690Z,945
2018-05-06T06:21:07.159Z,980
2018-05-06T06:21:32.674Z,995
2018-05-06T06:21:58.277Z,980
2018-05-06T06:22:23.703Z,955
2018-05-06T06:22:49.181Z,935
2018-05-06T06:23:14.607Z,915
2018-05-06T06:23:40.161Z,925
2018-05-06T06:24:05.715Z,945
2018-05-06T06:24:31.282Z,955
2018-05-06T06:24:56.552Z,950
2018-05-06T06:25:22.060Z,950
2018-05-06T06:25:47.550Z,970
2018-05-06T06:26:13.064Z,980
2018-05-06T06:26:38.443Z,1030
2018-05-06T06:27:03.905Z,1075
2018-05-06T06:27:29.392Z,1070
2018-05-06T06:27:54.920Z,960
2018-05-06T06:28:20.421Z,765
2018-05-06T06:28:45.854Z,555
2018-05-06T06:29:11.373Z,385
2018-05-06T06:29:36.828Z,270
2018-05-06T06:30:02.293Z,220
2018-05-06T06:30:27.799Z,210
2018-05-06T06:30:53.305Z,200
2018-05-06T06:31:18.741Z,195
2018-05-06T06:31:44.239Z,195
2018-05-06T06:32:09.728Z,190
2018-05-06T06:32:35.432Z,185
2018-05-06T06:33:00.928Z,185
2018-05-06T06:33:26.447Z,180
2018-05-06T06:33:51.903Z,180
2018-05-06T06:34:17.363Z,180
2018-05-06T06:34:42.903Z,175
2018-05-06T06:35:08.440Z,175
2018-05-06T06:35:33.896Z,175
2018-05-06T06:35:59.325Z,170
2018-05-06T06:36:24.786Z,170
2018-05-06T06:36:50.220Z,170
2018-05-06T06:37:15.692Z,170
2018-05-06T06:37:41.329Z,170
2018-05-06T06:38:06.806Z,180
2018-05-06T06:38:32.312Z,180
2018-05-06T06:38:57.807Z,180
2018-05-06T06:39:23.264Z,185
2018-05-06T06:39:48.687Z,185
2018-05-06T06:40:14.155Z,180
2018-05-06T06:40:39.657Z,185
2018-05-06T06:41:05.254Z,185
2018-05-06T06:41:30.742Z,185
2018-05-06T06:41:56.204Z,180
2018-05-06T06:42:21.959Z,180
2018-05-06T06:42:47.480Z,180
2018-05-06T06:43:12.966Z,180
2018-05-06T06:43:38.451Z,180
2018-05-06T06:44:04.032Z,180
2018-05-06T06:44:29.677Z,180
2018-05-06T06:44:56.493Z,180
2018-05-06T06:45:22.268Z,185
2018-05-06T06:45:47.804Z,180
2018-05-06T06:46:13.636Z,180
2018-05-06T06:46:39.118Z,175
2018-05-06T06:47:04.538Z,175
2018-05-06T06:47:30.297Z,175
2018-05-06T06:47:55.718Z,180
2018-05-06T06:48:21.115Z,190
2018-05-06T06:48:46.603Z,195
2018-05-06T06:49:12.183Z,190
2018-05-06T06:49:37.637Z,195
2018-05-06T06:50:03.083Z,195
2018-05-06T06:50:28.546Z,200
2018-05-06T06:50:54.056Z,200
2018-05-06T06:51:19.545Z,200
2018-05-06T06:51:45.018Z,210
2018-05-06T06:52:10.473Z,210
2018-05-06T06:52:35.935Z,215
2018-05-06T06:53:01.401Z,215
2018-05-06T06:53:26.880Z,220
2018-05-06T06:53:52.388Z,220
2018-05-06T06:54:17.840Z,220
2018-05-06T06:54:43.364Z,230
2018-05-06T06:55:08.806Z,225
2018-05-06T06:55:34.266Z,235
2018-05-06T06:55:59.726Z,240
2018-05-06T06:56:25.211Z,250
2018-05-06T06:56:50.702Z,265
2018-05-06T06:57:16.162Z,290
2018-05-06T06:57:41.631Z,340
2018-05-06T06:58:07.085Z,420
2018-05-06T06:58:32.550Z,500
2018-05-06T06:58:58.034Z,595
2018-05-06T06:59:23.522Z,670
2018-05-06T06:59:49.040Z,745
2018-05-06T07:00:14.525Z,805
2018-05-06T07:00:40.079Z,815
2018-05-06T07:01:05.492Z,825
2018-05-06T07:01:30.923Z,850
2018-05-06T07:01:56.376Z,900
2018-05-06T07:02:21.876Z,970
2018-05-06T07:02:47.375Z,1035
2018-05-06T07:03:12.876Z,1120
2018-05-06T07:03:38.398Z,1175
2018-05-06T07:04:03.923Z,1185
2018-05-06T07:04:29.406Z,1170
2018-05-06T07:04:54.918Z,1160
2018-05-06T07:05:20.451Z,1195
2018-05-06T07:05:45.951Z,1230
2018-05-06T07:06:11.393Z,1275
2018-05-06T07:06:36.796Z,1320
2018-05-06T07:07:02.280Z,1315
2018-05-06T07:07:28.087Z,1290
2018-05-06T07:07:53.607Z,1260
2018-05-06T07:08:19.095Z,1215
2018-05-06T07:08:44.595Z,1190
2018-05-06T07:09:10.046Z,1190
2018-05-06T07:09:35.520Z,1220
2018-05-06T07:10:00.974Z,1250
2018-05-06T07:10:26.430Z,1265
2018-05-06T07:10:51.877Z,1260
2018-05-06T07:11:17.401Z,1225
2018-05-06T07:11:42.846Z,1230
2018-05-06T07:12:08.306Z,1270
2018-05-06T07:12:33.796Z,1335
2018-05-06T07:12:59.418Z,1380
2018-05-06T07:13:24.932Z,1370
2018-05-06T07:13:50.416Z,1345
2018-05-06T07:14:15.854Z,1330
2018-05-06T07:14:41.485Z,1330
2018-05-06T07:15:06.871Z,1370
2018-05-06T07:15:32.432Z,1410
2018-05-06T07:15:58.849Z,1380
2018-05-06T07:16:24.381Z,1350
2018-05-06T07:16:49.942Z,1240
2018-05-06T07:17:15.411Z,1090
2018-05-06T07:17:40.936Z,930
2018-05-06T07:18:06.445Z,660
2018-05-06T07:18:32.048Z,505
2018-05-06T07:18:57.502Z,370
2018-05-06T07:19:23.166Z,320
2018-05-06T07:19:48.610Z,290
2018-05-06T07:20:14.083Z,285
2018-05-06T07:20:39.709Z,290
2018-05-06T07:21:05.221Z,305
2018-05-06T07:21:30.765Z,395
2018-05-06T07:21:56.358Z,535
2018-05-06T07:22:21.884Z,695
2018-05-06T07:22:47.446Z,830
2018-05-06T07:23:12.993Z,965
2018-05-06T07:23:38.452Z,1120
2018-05-06T07:24:03.927Z,1255
2018-05-06T07:24:29.470Z,1320
2018-05-06T07:24:55.029Z,1360
2018-05-06T07:25:20.552Z,1355
2018-05-06T07:25:46.194Z,1350
2018-05-06T07:26:11.616Z,1335
2018-05-06T07:26:37.186Z,1325
2018-05-06T07:27:02.706Z,1330
2018-05-06T07:27:28.253Z,1315
2018-05-06T07:27:53.759Z,1335
2018-05-06T07:28:19.389Z,1390
2018-05-06T07:28:44.884Z,1420
2018-05-06T07:29:10.364Z,1430
2018-05-06T07:29:35.866Z,1355
2018-05-06T07:30:01.495Z,1245
2018-05-06T07:30:26.965Z,1200
2018-05-06T07:30:52.623Z,1225
2018-05-06T07:31:18.220Z,1290
2018-05-06T07:31:43.760Z,1270
2018-05-06T07:32:09.279Z,1130
2018-05-06T07:32:34.772Z,910
2018-05-06T07:33:00.326Z,670
2018-05-06T07:33:25.858Z,465
2018-05-06T07:33:51.361Z,310
2018-05-06T07:34:17.081Z,255
2018-05-06T07:34:42.648Z,235
2018-05-06T07:35:08.095Z,235
2018-05-06T07:35:33.671Z,230
2018-05-06T07:35:59.159Z,230
2018-05-06T07:36:24.700Z,230
2018-05-06T07:36:50.453Z,225
2018-05-06T07:37:16.006Z,220
2018-05-06T07:37:41.626Z,215
2018-05-06T07:38:07.177Z,210
2018-05-06T07:38:32.803Z,210
2018-05-06T07:38:58.319Z,210
2018-05-06T07:39:23.875Z,210
2018-05-06T07:39:49.392Z,205
2018-05-06T07:40:15.200Z,205
2018-05-06T07:40:41.212Z,200
2018-05-06T07:41:06.619Z,200
2018-05-06T07:41:33.106Z,195
2018-05-06T07:41:58.695Z,195
2018-05-06T07:42:24.281Z,195
2018-05-06T07:42:49.996Z,190
2018-05-06T07:43:15.442Z,190
2018-05-06T07:43:41.000Z,190
2018-05-06T07:44:06.571Z,185
2018-05-06T07:44:32.470Z,185
2018-05-06T07:44:58.022Z,185
2018-05-06T07:45:23.644Z,180
2018-05-06T07:45:49.296Z,180
2018-05-06T07:46:14.790Z,180
2018-05-06T07:46:40.306Z,180
2018-05-06T07:47:05.837Z,180
2018-05-06T07:47:31.416Z,180
2018-05-06T07:47:56.928Z,175
2018-05-06T07:48:22.517Z,175
2018-05-06T07:48:48.045Z,175
2018-05-06T07:49:13.511Z,180
2018-05-06T07:49:39.058Z,175
2018-05-06T07:51:04.165Z,170
2018-05-06T07:51:30.011Z,170
2018-05-06T07:51:55.452Z,170
2018-05-06T07:52:21.787Z,170
2018-05-06T07:52:47.286Z,170
2018-05-06T07:53:12.841Z,170
2018-05-06T07:53:38.422Z,170
2018-05-06T07:54:05.470Z,170
2018-05-06T07:54:30.817Z,170
2018-05-06T07:54:56.569Z,170
2018-05-06T07:55:22.125Z,170
2018-05-06T07:55:48.688Z,170
2018-05-06T07:56:14.225Z,170
2018-05-06T07:56:39.901Z,170
2018-05-06T07:57:06.955Z,170
2018-05-06T07:57:33.457Z,170
2018-05-06T07:57:59.258Z,170
2018-05-06T07:58:48.483Z,165
